sensor_id;sensor_type;location;lat;lon;timestamp;P1;durP1;ratioP1;P2;durP2;ratioP2
72437;SDS011;60444;43.534;-5.674;2023-01-10T00:00:28;12.63;;;3.20;;
72437;SDS011;60444;43.534;-5.674;2023-01-10T00:02:59;12.18;;;4.03;;
72437;SDS011;60444;43.534;-5.674;2023-01-10T00:05:25;10.52;;;3.85;;
72437;SDS011;60444;43.534;-5.674;2023-01-10T00:07:51;13.33;;;4.90;;
72437;SDS011;60444;43.534;-5.674;2023-01-10T00:10:19;17.55;;;6.55;;
72437;SDS011;60444;43.534;-5.674;2023-01-10T00:12:44;14.23;;;5.18;;
72437;SDS011;60444;43.534;-5.674;2023-01-10T00:15:30;18.97;;;5.53;;
72437;SDS011;60444;43.534;-5.674;2023-01-10T00:17:57;15.57;;;5.53;;
72437;SDS011;60444;43.534;-5.674;2023-01-10T00:20:22;13.50;;;5.60;;
72437;SDS011;60444;43.534;-5.674;2023-01-10T00:22:48;19.45;;;6.72;;
72437;SDS011;60444;43.534;-5.674;2023-01-10T00:25:15;16.13;;;5.88;;
72437;SDS011;60444;43.534;-5.674;2023-01-10T00:27:40;13.27;;;4.73;;
72437;SDS011;60444;43.534;-5.674;2023-01-10T00:30:09;12.55;;;5.00;;
72437;SDS011;60444;43.534;-5.674;2023-01-10T00:32:41;12.70;;;4.50;;
72437;SDS011;60444;43.534;-5.674;2023-01-10T00:35:09;16.98;;;5.05;;
72437;SDS011;60444;43.534;-5.674;2023-01-10T00:37:35;12.52;;;4.18;;
72437;SDS011;60444;43.534;-5.674;2023-01-10T00:40:01;16.30;;;5.23;;
72437;SDS011;60444;43.534;-5.674;2023-01-10T00:42:26;9.63;;;3.40;;
72437;SDS011;60444;43.534;-5.674;2023-01-10T00:45:11;9.10;;;2.70;;
72437;SDS011;60444;43.534;-5.674;2023-01-10T00:47:36;12.60;;;4.33;;
72437;SDS011;60444;43.534;-5.674;2023-01-10T00:50:02;12.77;;;3.93;;
72437;SDS011;60444;43.534;-5.674;2023-01-10T00:52:32;10.65;;;3.58;;
72437;SDS011;60444;43.534;-5.674;2023-01-10T00:54:58;12.57;;;4.53;;
72437;SDS011;60444;43.534;-5.674;2023-01-10T00:57:23;10.37;;;3.80;;
72437;SDS011;60444;43.534;-5.674;2023-01-10T00:59:49;12.57;;;3.90;;
72437;SDS011;60444;43.534;-5.674;2023-01-10T01:02:14;10.93;;;3.33;;
72437;SDS011;60444;43.534;-5.674;2023-01-10T01:04:40;10.20;;;3.90;;
72437;SDS011;60444;43.534;-5.674;2023-01-10T01:07:05;12.43;;;4.53;;
72437;SDS011;60444;43.534;-5.674;2023-01-10T01:09:31;10.90;;;3.60;;
72437;SDS011;60444;43.534;-5.674;2023-01-10T01:11:56;11.90;;;4.13;;
72437;SDS011;60444;43.534;-5.674;2023-01-10T01:14:33;9.07;;;3.22;;
72437;SDS011;60444;43.534;-5.674;2023-01-10T01:16:59;11.35;;;4.03;;
72437;SDS011;60444;43.534;-5.674;2023-01-10T01:19:24;11.90;;;3.43;;
72437;SDS011;60444;43.534;-5.674;2023-01-10T01:21:51;11.20;;;3.58;;
72437;SDS011;60444;43.534;-5.674;2023-01-10T01:24:16;13.30;;;4.20;;
72437;SDS011;60444;43.534;-5.674;2023-01-10T01:26:42;13.43;;;4.10;;
72437;SDS011;60444;43.534;-5.674;2023-01-10T01:29:07;11.95;;;4.03;;
72437;SDS011;60444;43.534;-5.674;2023-01-10T01:31:33;10.73;;;4.27;;
72437;SDS011;60444;43.534;-5.674;2023-01-10T01:33:58;11.90;;;4.67;;
72437;SDS011;60444;43.534;-5.674;2023-01-10T01:36:24;11.38;;;2.97;;
72437;SDS011;60444;43.534;-5.674;2023-01-10T01:38:50;10.70;;;4.03;;
72437;SDS011;60444;43.534;-5.674;2023-01-10T01:41:15;12.10;;;4.10;;
72437;SDS011;60444;43.534;-5.674;2023-01-10T01:44:09;12.63;;;5.38;;
72437;SDS011;60444;43.534;-5.674;2023-01-10T01:46:39;10.43;;;3.22;;
72437;SDS011;60444;43.534;-5.674;2023-01-10T01:49:08;13.00;;;3.70;;
72437;SDS011;60444;43.534;-5.674;2023-01-10T01:51:40;13.27;;;3.85;;
72437;SDS011;60444;43.534;-5.674;2023-01-10T01:54:10;11.23;;;4.50;;
72437;SDS011;60444;43.534;-5.674;2023-01-10T01:56:38;13.52;;;4.70;;
72437;SDS011;60444;43.534;-5.674;2023-01-10T01:59:19;12.40;;;4.10;;
72437;SDS011;60444;43.534;-5.674;2023-01-10T02:01:50;9.90;;;3.72;;
72437;SDS011;60444;43.534;-5.674;2023-01-10T02:04:20;13.73;;;4.20;;
72437;SDS011;60444;43.534;-5.674;2023-01-10T02:06:51;17.60;;;4.63;;
72437;SDS011;60444;43.534;-5.674;2023-01-10T02:09:21;14.38;;;3.28;;
72437;SDS011;60444;43.534;-5.674;2023-01-10T02:11:53;14.50;;;3.97;;
72437;SDS011;60444;43.534;-5.674;2023-01-10T02:14:20;10.30;;;3.45;;
72437;SDS011;60444;43.534;-5.674;2023-01-10T02:16:48;11.57;;;3.60;;
72437;SDS011;60444;43.534;-5.674;2023-01-10T02:19:21;9.40;;;3.67;;
72437;SDS011;60444;43.534;-5.674;2023-01-10T02:22:39;12.05;;;4.05;;
72437;SDS011;60444;43.534;-5.674;2023-01-10T02:34:03;13.57;;;3.17;;
72437;SDS011;60444;43.534;-5.674;2023-01-10T02:36:41;9.82;;;3.25;;
72437;SDS011;60444;43.534;-5.674;2023-01-10T02:39:38;10.87;;;2.90;;
72437;SDS011;60444;43.534;-5.674;2023-01-10T02:42:18;9.18;;;2.58;;
72437;SDS011;60444;43.534;-5.674;2023-01-10T02:44:53;10.88;;;2.90;;
72437;SDS011;60444;43.534;-5.674;2023-01-10T02:47:36;12.25;;;3.15;;
72437;SDS011;60444;43.534;-5.674;2023-01-10T03:12:46;9.20;;;2.60;;
72437;SDS011;60444;43.534;-5.674;2023-01-10T03:15:23;10.18;;;2.65;;
72437;SDS011;60444;43.534;-5.674;2023-01-10T03:17:54;9.35;;;2.72;;
72437;SDS011;60444;43.534;-5.674;2023-01-10T03:20:23;11.43;;;3.33;;
72437;SDS011;60444;43.534;-5.674;2023-01-10T03:22:50;9.07;;;3.20;;
72437;SDS011;60444;43.534;-5.674;2023-01-10T03:25:20;8.43;;;3.03;;
72437;SDS011;60444;43.534;-5.674;2023-01-10T03:28:01;13.55;;;3.13;;
72437;SDS011;60444;43.534;-5.674;2023-01-10T03:31:03;11.35;;;3.08;;
72437;SDS011;60444;43.534;-5.674;2023-01-10T03:33:35;9.33;;;2.60;;
72437;SDS011;60444;43.534;-5.674;2023-01-10T03:38:49;7.22;;;2.58;;
72437;SDS011;60444;43.534;-5.674;2023-01-10T03:44:08;9.88;;;2.63;;
72437;SDS011;60444;43.534;-5.674;2023-01-10T03:47:03;10.57;;;2.30;;
72437;SDS011;60444;43.534;-5.674;2023-01-10T03:49:34;9.20;;;2.90;;
72437;SDS011;60444;43.534;-5.674;2023-01-10T03:52:03;9.90;;;3.10;;
72437;SDS011;60444;43.534;-5.674;2023-01-10T03:54:31;8.10;;;2.65;;
72437;SDS011;60444;43.534;-5.674;2023-01-10T03:56:57;9.73;;;2.50;;
72437;SDS011;60444;43.534;-5.674;2023-01-10T03:59:25;9.40;;;2.40;;
72437;SDS011;60444;43.534;-5.674;2023-01-10T04:01:52;8.07;;;2.30;;
72437;SDS011;60444;43.534;-5.674;2023-01-10T04:04:18;9.32;;;2.20;;
72437;SDS011;60444;43.534;-5.674;2023-01-10T04:06:44;10.52;;;2.63;;
72437;SDS011;60444;43.534;-5.674;2023-01-10T04:09:09;6.13;;;2.17;;
72437;SDS011;60444;43.534;-5.674;2023-01-10T04:11:35;6.43;;;1.92;;
72437;SDS011;60444;43.534;-5.674;2023-01-10T04:14:01;6.80;;;2.10;;
72437;SDS011;60444;43.534;-5.674;2023-01-10T04:16:27;8.38;;;2.40;;
72437;SDS011;60444;43.534;-5.674;2023-01-10T04:18:52;8.40;;;2.00;;
72437;SDS011;60444;43.534;-5.674;2023-01-10T04:21:18;7.90;;;2.33;;
72437;SDS011;60444;43.534;-5.674;2023-01-10T04:23:43;6.53;;;2.20;;
72437;SDS011;60444;43.534;-5.674;2023-01-10T04:26:09;7.07;;;2.30;;
72437;SDS011;60444;43.534;-5.674;2023-01-10T04:28:34;9.90;;;2.43;;
72437;SDS011;60444;43.534;-5.674;2023-01-10T04:31:00;9.77;;;2.83;;
72437;SDS011;60444;43.534;-5.674;2023-01-10T04:33:25;7.57;;;2.10;;
72437;SDS011;60444;43.534;-5.674;2023-01-10T04:35:52;7.38;;;2.38;;
72437;SDS011;60444;43.534;-5.674;2023-01-10T04:38:18;6.25;;;1.70;;
72437;SDS011;60444;43.534;-5.674;2023-01-10T04:40:50;5.65;;;1.90;;
72437;SDS011;60444;43.534;-5.674;2023-01-10T04:43:18;9.07;;;2.07;;
72437;SDS011;60444;43.534;-5.674;2023-01-10T04:45:43;9.30;;;2.10;;
72437;SDS011;60444;43.534;-5.674;2023-01-10T04:48:09;8.50;;;2.10;;
72437;SDS011;60444;43.534;-5.674;2023-01-10T04:50:34;9.77;;;2.05;;
72437;SDS011;60444;43.534;-5.674;2023-01-10T04:53:00;7.47;;;1.70;;
72437;SDS011;60444;43.534;-5.674;2023-01-10T04:55:25;9.63;;;1.57;;
72437;SDS011;60444;43.534;-5.674;2023-01-10T04:57:51;5.00;;;1.40;;
72437;SDS011;60444;43.534;-5.674;2023-01-10T05:00:16;9.57;;;1.70;;
72437;SDS011;60444;43.534;-5.674;2023-01-10T05:02:42;9.13;;;2.33;;
72437;SDS011;60444;43.534;-5.674;2023-01-10T05:05:11;6.88;;;1.63;;
72437;SDS011;60444;43.534;-5.674;2023-01-10T05:07:38;7.20;;;1.52;;
72437;SDS011;60444;43.534;-5.674;2023-01-10T05:10:04;7.90;;;2.08;;
72437;SDS011;60444;43.534;-5.674;2023-01-10T05:12:31;9.17;;;1.80;;
72437;SDS011;60444;43.534;-5.674;2023-01-10T05:14:56;9.75;;;1.85;;
72437;SDS011;60444;43.534;-5.674;2023-01-10T05:17:22;5.93;;;1.43;;
72437;SDS011;60444;43.534;-5.674;2023-01-10T05:19:47;6.97;;;1.53;;
72437;SDS011;60444;43.534;-5.674;2023-01-10T05:22:13;7.03;;;1.42;;
72437;SDS011;60444;43.534;-5.674;2023-01-10T05:24:38;8.20;;;1.90;;
72437;SDS011;60444;43.534;-5.674;2023-01-10T05:27:04;6.57;;;1.57;;
72437;SDS011;60444;43.534;-5.674;2023-01-10T05:29:29;10.30;;;2.00;;
72437;SDS011;60444;43.534;-5.674;2023-01-10T05:31:56;5.95;;;1.40;;
72437;SDS011;60444;43.534;-5.674;2023-01-10T05:34:21;9.00;;;2.27;;
72437;SDS011;60444;43.534;-5.674;2023-01-10T05:36:47;6.45;;;1.52;;
72437;SDS011;60444;43.534;-5.674;2023-01-10T05:39:12;8.33;;;2.13;;
72437;SDS011;60444;43.534;-5.674;2023-01-10T05:41:38;8.40;;;1.80;;
72437;SDS011;60444;43.534;-5.674;2023-01-10T05:44:04;11.80;;;3.08;;
72437;SDS011;60444;43.534;-5.674;2023-01-10T05:46:30;10.85;;;3.45;;
72437;SDS011;60444;43.534;-5.674;2023-01-10T05:48:56;8.63;;;2.30;;
72437;SDS011;60444;43.534;-5.674;2023-01-10T05:51:21;6.93;;;2.33;;
72437;SDS011;60444;43.534;-5.674;2023-01-10T05:53:47;7.03;;;2.38;;
72437;SDS011;60444;43.534;-5.674;2023-01-10T05:56:12;7.40;;;2.23;;
72437;SDS011;60444;43.534;-5.674;2023-01-10T05:58:38;11.27;;;2.20;;
72437;SDS011;60444;43.534;-5.674;2023-01-10T06:01:03;10.23;;;2.30;;
72437;SDS011;60444;43.534;-5.674;2023-01-10T06:03:29;7.97;;;1.87;;
72437;SDS011;60444;43.534;-5.674;2023-01-10T06:05:54;6.37;;;1.73;;
72437;SDS011;60444;43.534;-5.674;2023-01-10T06:08:20;8.02;;;2.45;;
72437;SDS011;60444;43.534;-5.674;2023-01-10T06:10:47;9.60;;;3.13;;
72437;SDS011;60444;43.534;-5.674;2023-01-10T06:13:12;6.40;;;2.40;;
72437;SDS011;60444;43.534;-5.674;2023-01-10T06:15:38;7.05;;;1.98;;
72437;SDS011;60444;43.534;-5.674;2023-01-10T06:18:04;10.73;;;2.37;;
72437;SDS011;60444;43.534;-5.674;2023-01-10T06:20:29;9.57;;;2.27;;
72437;SDS011;60444;43.534;-5.674;2023-01-10T06:22:55;9.47;;;2.20;;
72437;SDS011;60444;43.534;-5.674;2023-01-10T06:25:22;6.38;;;2.00;;
72437;SDS011;60444;43.534;-5.674;2023-01-10T06:27:48;7.27;;;2.27;;
72437;SDS011;60444;43.534;-5.674;2023-01-10T06:30:14;9.23;;;2.63;;
72437;SDS011;60444;43.534;-5.674;2023-01-10T06:32:39;10.23;;;2.47;;
72437;SDS011;60444;43.534;-5.674;2023-01-10T06:35:06;8.30;;;2.80;;
72437;SDS011;60444;43.534;-5.674;2023-01-10T06:37:32;12.90;;;2.95;;
72437;SDS011;60444;43.534;-5.674;2023-01-10T06:39:57;8.60;;;2.43;;
72437;SDS011;60444;43.534;-5.674;2023-01-10T06:42:23;7.97;;;2.38;;
72437;SDS011;60444;43.534;-5.674;2023-01-10T06:44:49;7.17;;;2.37;;
72437;SDS011;60444;43.534;-5.674;2023-01-10T06:47:14;9.47;;;3.13;;
72437;SDS011;60444;43.534;-5.674;2023-01-10T06:49:40;14.63;;;3.53;;
72437;SDS011;60444;43.534;-5.674;2023-01-10T06:52:05;10.40;;;3.20;;
72437;SDS011;60444;43.534;-5.674;2023-01-10T06:54:31;9.73;;;2.90;;
72437;SDS011;60444;43.534;-5.674;2023-01-10T06:56:56;9.68;;;2.88;;
72437;SDS011;60444;43.534;-5.674;2023-01-10T06:59:22;8.33;;;2.87;;
72437;SDS011;60444;43.534;-5.674;2023-01-10T07:01:47;7.43;;;2.90;;
72437;SDS011;60444;43.534;-5.674;2023-01-10T07:04:13;9.85;;;2.70;;
72437;SDS011;60444;43.534;-5.674;2023-01-10T07:06:38;9.33;;;2.60;;
72437;SDS011;60444;43.534;-5.674;2023-01-10T07:09:05;8.32;;;2.20;;
72437;SDS011;60444;43.534;-5.674;2023-01-10T07:11:32;9.13;;;2.58;;
72437;SDS011;60444;43.534;-5.674;2023-01-10T07:13:59;9.80;;;2.73;;
72437;SDS011;60444;43.534;-5.674;2023-01-10T07:16:25;9.30;;;2.10;;
72437;SDS011;60444;43.534;-5.674;2023-01-10T07:18:50;8.45;;;2.50;;
72437;SDS011;60444;43.534;-5.674;2023-01-10T07:21:16;8.27;;;1.90;;
72437;SDS011;60444;43.534;-5.674;2023-01-10T07:23:46;9.18;;;2.17;;
72437;SDS011;60444;43.534;-5.674;2023-01-10T07:26:13;7.53;;;2.40;;
72437;SDS011;60444;43.534;-5.674;2023-01-10T07:28:41;10.38;;;3.03;;
72437;SDS011;60444;43.534;-5.674;2023-01-10T07:31:14;7.90;;;1.97;;
72437;SDS011;60444;43.534;-5.674;2023-01-10T07:33:41;6.65;;;1.67;;
72437;SDS011;60444;43.534;-5.674;2023-01-10T07:36:07;7.20;;;2.35;;
72437;SDS011;60444;43.534;-5.674;2023-01-10T07:38:32;7.50;;;1.67;;
72437;SDS011;60444;43.534;-5.674;2023-01-10T07:41:00;8.73;;;2.20;;
72437;SDS011;60444;43.534;-5.674;2023-01-10T07:43:26;7.20;;;2.00;;
72437;SDS011;60444;43.534;-5.674;2023-01-10T07:45:52;7.53;;;1.80;;
72437;SDS011;60444;43.534;-5.674;2023-01-10T07:48:17;5.83;;;1.90;;
72437;SDS011;60444;43.534;-5.674;2023-01-10T07:50:43;6.10;;;2.00;;
72437;SDS011;60444;43.534;-5.674;2023-01-10T07:53:08;6.20;;;1.73;;
72437;SDS011;60444;43.534;-5.674;2023-01-10T07:55:34;10.03;;;2.50;;
72437;SDS011;60444;43.534;-5.674;2023-01-10T07:58:04;7.10;;;2.17;;
72437;SDS011;60444;43.534;-5.674;2023-01-10T08:00:34;9.07;;;2.10;;
72437;SDS011;60444;43.534;-5.674;2023-01-10T08:03:00;7.03;;;2.13;;
72437;SDS011;60444;43.534;-5.674;2023-01-10T08:05:25;8.87;;;2.10;;
72437;SDS011;60444;43.534;-5.674;2023-01-10T08:07:51;6.90;;;1.95;;
72437;SDS011;60444;43.534;-5.674;2023-01-10T08:10:17;9.20;;;2.17;;
72437;SDS011;60444;43.534;-5.674;2023-01-10T08:12:43;10.73;;;3.42;;
72437;SDS011;60444;43.534;-5.674;2023-01-10T08:15:08;10.80;;;2.27;;
72437;SDS011;60444;43.534;-5.674;2023-01-10T08:17:34;8.25;;;2.08;;
72437;SDS011;60444;43.534;-5.674;2023-01-10T08:20:00;10.88;;;2.90;;
72437;SDS011;60444;43.534;-5.674;2023-01-10T08:22:26;6.90;;;1.73;;
72437;SDS011;60444;43.534;-5.674;2023-01-10T08:24:52;7.22;;;2.20;;
72437;SDS011;60444;43.534;-5.674;2023-01-10T08:27:17;8.47;;;2.43;;
72437;SDS011;60444;43.534;-5.674;2023-01-10T08:29:43;6.40;;;2.00;;
72437;SDS011;60444;43.534;-5.674;2023-01-10T08:32:08;13.27;;;3.23;;
72437;SDS011;60444;43.534;-5.674;2023-01-10T08:34:34;8.38;;;2.28;;
72437;SDS011;60444;43.534;-5.674;2023-01-10T08:37:00;8.90;;;2.83;;
72437;SDS011;60444;43.534;-5.674;2023-01-10T08:39:27;7.35;;;2.42;;
72437;SDS011;60444;43.534;-5.674;2023-01-10T08:41:54;7.53;;;2.38;;
72437;SDS011;60444;43.534;-5.674;2023-01-10T08:44:21;9.53;;;3.00;;
72437;SDS011;60444;43.534;-5.674;2023-01-10T08:46:46;9.15;;;2.70;;
72437;SDS011;60444;43.534;-5.674;2023-01-10T08:49:12;19.77;;;3.20;;
72437;SDS011;60444;43.534;-5.674;2023-01-10T08:51:38;9.87;;;3.90;;
72437;SDS011;60444;43.534;-5.674;2023-01-10T08:54:04;7.10;;;2.40;;
72437;SDS011;60444;43.534;-5.674;2023-01-10T08:56:29;7.87;;;2.53;;
72437;SDS011;60444;43.534;-5.674;2023-01-10T08:58:55;10.15;;;2.83;;
72437;SDS011;60444;43.534;-5.674;2023-01-10T09:01:21;6.53;;;2.10;;
72437;SDS011;60444;43.534;-5.674;2023-01-10T09:03:46;7.87;;;2.20;;
72437;SDS011;60444;43.534;-5.674;2023-01-10T09:06:12;9.60;;;2.38;;
72437;SDS011;60444;43.534;-5.674;2023-01-10T09:08:37;7.70;;;2.30;;
72437;SDS011;60444;43.534;-5.674;2023-01-10T09:11:03;8.60;;;2.63;;
72437;SDS011;60444;43.534;-5.674;2023-01-10T09:13:30;7.95;;;2.55;;
72437;SDS011;60444;43.534;-5.674;2023-01-10T09:15:56;8.45;;;2.70;;
72437;SDS011;60444;43.534;-5.674;2023-01-10T09:18:23;7.60;;;2.38;;
72437;SDS011;60444;43.534;-5.674;2023-01-10T09:20:49;9.30;;;2.35;;
72437;SDS011;60444;43.534;-5.674;2023-01-10T09:23:16;9.87;;;1.97;;
72437;SDS011;60444;43.534;-5.674;2023-01-10T09:25:48;11.80;;;2.38;;
72437;SDS011;60444;43.534;-5.674;2023-01-10T09:28:16;8.02;;;1.98;;
72437;SDS011;60444;43.534;-5.674;2023-01-10T09:30:43;7.45;;;2.08;;
72437;SDS011;60444;43.534;-5.674;2023-01-10T09:33:09;6.20;;;2.05;;
72437;SDS011;60444;43.534;-5.674;2023-01-10T09:35:36;6.03;;;1.43;;
72437;SDS011;60444;43.534;-5.674;2023-01-10T09:38:03;6.25;;;1.73;;
72437;SDS011;60444;43.534;-5.674;2023-01-10T09:40:32;6.38;;;1.35;;
72437;SDS011;60444;43.534;-5.674;2023-01-10T09:43:09;6.95;;;1.70;;
72437;SDS011;60444;43.534;-5.674;2023-01-10T09:46:01;11.35;;;2.40;;
72437;SDS011;60444;43.534;-5.674;2023-01-10T09:54:10;8.73;;;2.53;;
72437;SDS011;60444;43.534;-5.674;2023-01-10T09:56:39;7.97;;;2.00;;
72437;SDS011;60444;43.534;-5.674;2023-01-10T09:59:08;6.77;;;2.13;;
72437;SDS011;60444;43.534;-5.674;2023-01-10T10:01:39;8.05;;;2.67;;
72437;SDS011;60444;43.534;-5.674;2023-01-10T10:07:02;12.98;;;1.52;;
72437;SDS011;60444;43.534;-5.674;2023-01-10T10:09:32;6.35;;;1.77;;
72437;SDS011;60444;43.534;-5.674;2023-01-10T10:20:25;7.75;;;2.00;;
72437;SDS011;60444;43.534;-5.674;2023-01-10T10:25:42;9.13;;;2.10;;
72437;SDS011;60444;43.534;-5.674;2023-01-10T10:36:42;6.10;;;2.25;;
72437;SDS011;60444;43.534;-5.674;2023-01-10T10:39:16;9.52;;;2.30;;
72437;SDS011;60444;43.534;-5.674;2023-01-10T10:42:05;8.98;;;2.63;;
72437;SDS011;60444;43.534;-5.674;2023-01-10T10:44:57;6.30;;;2.10;;
72437;SDS011;60444;43.534;-5.674;2023-01-10T10:47:28;6.40;;;2.13;;
72437;SDS011;60444;43.534;-5.674;2023-01-10T10:52:47;7.18;;;1.98;;
72437;SDS011;60444;43.534;-5.674;2023-01-10T10:55:14;6.00;;;2.00;;
72437;SDS011;60444;43.534;-5.674;2023-01-10T10:57:41;6.55;;;1.80;;
72437;SDS011;60444;43.534;-5.674;2023-01-10T11:00:16;6.03;;;1.60;;
72437;SDS011;60444;43.534;-5.674;2023-01-10T11:05:56;8.00;;;2.00;;
72437;SDS011;60444;43.534;-5.674;2023-01-10T11:08:24;6.68;;;2.00;;
72437;SDS011;60444;43.534;-5.674;2023-01-10T11:10:53;8.90;;;2.20;;
72437;SDS011;60444;43.534;-5.674;2023-01-10T11:13:28;8.88;;;2.60;;
72437;SDS011;60444;43.534;-5.674;2023-01-10T11:15:58;6.47;;;1.90;;
72437;SDS011;60444;43.534;-5.674;2023-01-10T11:18:26;8.67;;;1.90;;
72437;SDS011;60444;43.534;-5.674;2023-01-10T11:28:52;7.22;;;2.10;;
72437;SDS011;60444;43.534;-5.674;2023-01-10T11:31:45;9.37;;;2.50;;
72437;SDS011;60444;43.534;-5.674;2023-01-10T11:34:46;8.10;;;2.03;;
72437;SDS011;60444;43.534;-5.674;2023-01-10T11:37:04;7.22;;;1.42;;
72437;SDS011;60444;43.534;-5.674;2023-01-10T11:39:41;7.82;;;1.92;;
72437;SDS011;60444;43.534;-5.674;2023-01-10T11:44:53;7.03;;;2.20;;
72437;SDS011;60444;43.534;-5.674;2023-01-10T11:47:20;6.78;;;1.73;;
72437;SDS011;60444;43.534;-5.674;2023-01-10T11:49:46;7.18;;;2.25;;
72437;SDS011;60444;43.534;-5.674;2023-01-10T11:52:26;5.93;;;1.90;;
72437;SDS011;60444;43.534;-5.674;2023-01-10T11:54:54;7.15;;;2.13;;
72437;SDS011;60444;43.534;-5.674;2023-01-10T11:57:29;10.55;;;2.95;;
72437;SDS011;60444;43.534;-5.674;2023-01-10T12:02:30;8.38;;;2.35;;
72437;SDS011;60444;43.534;-5.674;2023-01-10T12:05:05;6.70;;;2.17;;
72437;SDS011;60444;43.534;-5.674;2023-01-10T12:10:21;7.82;;;1.98;;
72437;SDS011;60444;43.534;-5.674;2023-01-10T12:12:55;8.43;;;1.80;;
72437;SDS011;60444;43.534;-5.674;2023-01-10T12:15:31;9.32;;;2.28;;
72437;SDS011;60444;43.534;-5.674;2023-01-10T12:17:59;7.40;;;2.07;;
72437;SDS011;60444;43.534;-5.674;2023-01-10T12:20:28;5.90;;;2.00;;
72437;SDS011;60444;43.534;-5.674;2023-01-10T12:22:59;5.68;;;1.83;;
72437;SDS011;60444;43.534;-5.674;2023-01-10T12:27:57;9.10;;;1.83;;
72437;SDS011;60444;43.534;-5.674;2023-01-10T12:30:30;7.30;;;2.37;;
72437;SDS011;60444;43.534;-5.674;2023-01-10T12:32:59;8.25;;;2.13;;
72437;SDS011;60444;43.534;-5.674;2023-01-10T12:38:35;7.25;;;2.05;;
72437;SDS011;60444;43.534;-5.674;2023-01-10T12:41:29;5.53;;;1.50;;
72437;SDS011;60444;43.534;-5.674;2023-01-10T12:44:31;6.43;;;1.40;;
72437;SDS011;60444;43.534;-5.674;2023-01-10T12:49:53;6.22;;;1.33;;
72437;SDS011;60444;43.534;-5.674;2023-01-10T12:55:18;6.22;;;1.73;;
72437;SDS011;60444;43.534;-5.674;2023-01-10T12:57:49;5.67;;;1.23;;
72437;SDS011;60444;43.534;-5.674;2023-01-10T13:02:45;6.75;;;2.15;;
72437;SDS011;60444;43.534;-5.674;2023-01-10T13:05:14;7.32;;;2.20;;
72437;SDS011;60444;43.534;-5.674;2023-01-10T13:07:42;8.43;;;2.20;;
72437;SDS011;60444;43.534;-5.674;2023-01-10T13:10:12;7.97;;;2.70;;
72437;SDS011;60444;43.534;-5.674;2023-01-10T13:12:42;7.03;;;2.42;;
72437;SDS011;60444;43.534;-5.674;2023-01-10T13:15:22;7.22;;;2.20;;
72437;SDS011;60444;43.534;-5.674;2023-01-10T13:17:58;7.85;;;2.35;;
72437;SDS011;60444;43.534;-5.674;2023-01-10T13:20:38;7.23;;;2.33;;
72437;SDS011;60444;43.534;-5.674;2023-01-10T13:23:38;8.35;;;2.78;;
72437;SDS011;60444;43.534;-5.674;2023-01-10T13:25:59;8.50;;;1.95;;
72437;SDS011;60444;43.534;-5.674;2023-01-10T13:28:36;6.55;;;1.83;;
72437;SDS011;60444;43.534;-5.674;2023-01-10T13:31:05;6.50;;;2.17;;
72437;SDS011;60444;43.534;-5.674;2023-01-10T13:36:23;9.65;;;3.10;;
72437;SDS011;60444;43.534;-5.674;2023-01-10T13:38:55;8.55;;;2.70;;
72437;SDS011;60444;43.534;-5.674;2023-01-10T13:41:23;11.48;;;2.90;;
72437;SDS011;60444;43.534;-5.674;2023-01-10T13:46:40;13.07;;;3.97;;
72437;SDS011;60444;43.534;-5.674;2023-01-10T13:51:37;22.05;;;5.10;;
72437;SDS011;60444;43.534;-5.674;2023-01-10T13:56:41;15.80;;;3.92;;
72437;SDS011;60444;43.534;-5.674;2023-01-10T13:59:10;14.68;;;5.00;;
72437;SDS011;60444;43.534;-5.674;2023-01-10T14:02:21;18.75;;;6.72;;
72437;SDS011;60444;43.534;-5.674;2023-01-10T14:04:59;22.52;;;6.90;;
72437;SDS011;60444;43.534;-5.674;2023-01-10T14:07:51;17.57;;;4.80;;
72437;SDS011;60444;43.534;-5.674;2023-01-10T14:10:25;21.42;;;4.63;;
72437;SDS011;60444;43.534;-5.674;2023-01-10T14:13:03;17.38;;;4.88;;
72437;SDS011;60444;43.534;-5.674;2023-01-10T14:15:37;22.48;;;4.75;;
72437;SDS011;60444;43.534;-5.674;2023-01-10T14:18:15;23.40;;;6.53;;
72437;SDS011;60444;43.534;-5.674;2023-01-10T14:21:02;23.00;;;6.20;;
72437;SDS011;60444;43.534;-5.674;2023-01-10T14:23:36;26.08;;;6.32;;
72437;SDS011;60444;43.534;-5.674;2023-01-10T14:26:06;22.90;;;6.85;;
72437;SDS011;60444;43.534;-5.674;2023-01-10T14:28:41;28.48;;;7.25;;
72437;SDS011;60444;43.534;-5.674;2023-01-10T14:31:20;30.83;;;8.83;;
72437;SDS011;60444;43.534;-5.674;2023-01-10T14:33:47;30.20;;;8.45;;
72437;SDS011;60444;43.534;-5.674;2023-01-10T14:36:24;31.15;;;7.82;;
72437;SDS011;60444;43.534;-5.674;2023-01-10T14:38:57;18.65;;;4.50;;
72437;SDS011;60444;43.534;-5.674;2023-01-10T14:41:40;15.00;;;4.65;;
72437;SDS011;60444;43.534;-5.674;2023-01-10T14:44:53;45.80;;;15.13;;
72437;SDS011;60444;43.534;-5.674;2023-01-10T14:47:02;28.52;;;8.10;;
72437;SDS011;60444;43.534;-5.674;2023-01-10T14:49:35;35.33;;;8.65;;
72437;SDS011;60444;43.534;-5.674;2023-01-10T14:54:46;26.47;;;8.50;;
72437;SDS011;60444;43.534;-5.674;2023-01-10T14:57:27;27.38;;;6.40;;
72437;SDS011;60444;43.534;-5.674;2023-01-10T15:00:00;24.70;;;7.40;;
72437;SDS011;60444;43.534;-5.674;2023-01-10T15:02:41;27.67;;;7.57;;
72437;SDS011;60444;43.534;-5.674;2023-01-10T15:05:16;21.05;;;6.20;;
72437;SDS011;60444;43.534;-5.674;2023-01-10T15:07:50;22.33;;;7.15;;
72437;SDS011;60444;43.534;-5.674;2023-01-10T15:12:52;35.90;;;8.90;;
72437;SDS011;60444;43.534;-5.674;2023-01-10T15:15:23;22.33;;;5.68;;
72437;SDS011;60444;43.534;-5.674;2023-01-10T15:17:54;26.70;;;8.40;;
72437;SDS011;60444;43.534;-5.674;2023-01-10T15:20:20;38.83;;;8.50;;
72437;SDS011;60444;43.534;-5.674;2023-01-10T15:22:47;33.70;;;8.60;;
72437;SDS011;60444;43.534;-5.674;2023-01-10T15:27:44;36.03;;;9.30;;
72437;SDS011;60444;43.534;-5.674;2023-01-10T15:30:19;30.50;;;8.00;;
72437;SDS011;60444;43.534;-5.674;2023-01-10T15:32:50;28.48;;;8.25;;
72437;SDS011;60444;43.534;-5.674;2023-01-10T15:35:18;32.20;;;8.50;;
72437;SDS011;60444;43.534;-5.674;2023-01-10T15:37:53;27.15;;;7.82;;
72437;SDS011;60444;43.534;-5.674;2023-01-10T15:40:28;38.33;;;8.10;;
72437;SDS011;60444;43.534;-5.674;2023-01-10T15:45:57;29.50;;;8.18;;
72437;SDS011;60444;43.534;-5.674;2023-01-10T15:48:31;28.48;;;6.97;;
72437;SDS011;60444;43.534;-5.674;2023-01-10T15:56:28;25.47;;;7.07;;
72437;SDS011;60444;43.534;-5.674;2023-01-10T16:04:47;23.38;;;6.00;;
72437;SDS011;60444;43.534;-5.674;2023-01-10T16:12:43;25.17;;;7.40;;
72437;SDS011;60444;43.534;-5.674;2023-01-10T16:15:27;30.65;;;8.20;;
72437;SDS011;60444;43.534;-5.674;2023-01-10T16:17:55;29.05;;;8.73;;
72437;SDS011;60444;43.534;-5.674;2023-01-10T16:20:25;31.92;;;9.85;;
72437;SDS011;60444;43.534;-5.674;2023-01-10T16:22:51;24.10;;;6.27;;
72437;SDS011;60444;43.534;-5.674;2023-01-10T16:25:39;25.67;;;6.85;;
72437;SDS011;60444;43.534;-5.674;2023-01-10T16:28:08;30.38;;;7.88;;
72437;SDS011;60444;43.534;-5.674;2023-01-10T16:30:38;24.60;;;6.90;;
72437;SDS011;60444;43.534;-5.674;2023-01-10T16:33:12;16.60;;;6.15;;
72437;SDS011;60444;43.534;-5.674;2023-01-10T16:35:45;16.00;;;5.90;;
72437;SDS011;60444;43.534;-5.674;2023-01-10T16:38:12;19.63;;;5.70;;
72437;SDS011;60444;43.534;-5.674;2023-01-10T16:40:41;16.98;;;6.47;;
72437;SDS011;60444;43.534;-5.674;2023-01-10T16:43:09;12.20;;;4.55;;
72437;SDS011;60444;43.534;-5.674;2023-01-10T16:48:17;12.13;;;4.45;;
72437;SDS011;60444;43.534;-5.674;2023-01-10T16:50:44;13.32;;;4.88;;
72437;SDS011;60444;43.534;-5.674;2023-01-10T16:53:11;11.70;;;4.50;;
72437;SDS011;60444;43.534;-5.674;2023-01-10T16:55:40;11.15;;;4.00;;
72437;SDS011;60444;43.534;-5.674;2023-01-10T16:58:07;13.83;;;4.80;;
72437;SDS011;60444;43.534;-5.674;2023-01-10T17:00:34;13.30;;;4.95;;
72437;SDS011;60444;43.534;-5.674;2023-01-10T17:03:02;15.35;;;6.22;;
72437;SDS011;60444;43.534;-5.674;2023-01-10T17:05:34;15.65;;;5.85;;